Time,TemperatureF,DewpointF,PressureIn,WindDirection,WindDirectionDegrees,WindSpeedMPH,WindSpeedGustMPH,Humidity,HourlyPrecipIn,Conditions,Clouds,dailyrainin,SoftwareType,DateUTC
2013-11-03 00:02:00,55.2,33.7,29.50,NE,49,0.0,0.0,44,0.00,,,0.00,LWC V2.10 B1813,2013-11-03 05:02:00,
2013-11-03 00:07:00,54.5,33.6,29.50,NE,49,0.0,0.0,45,0.00,,,0.00,LWC V2.10 B1813,2013-11-03 05:07:00,
2013-11-03 00:12:00,53.8,32.9,29.50,NE,49,0.0,0.0,45,0.00,,,0.00,LWC V2.10 B1813,2013-11-03 05:12:00,
2013-11-03 00:17:00,53.4,33.2,29.50,NE,49,0.0,0.0,46,0.00,,,0.00,LWC V2.10 B1813,2013-11-03 05:17:00,
2013-11-03 00:22:00,53.4,33.2,29.50,NE,49,0.0,0.0,46,0.00,,,0.00,LWC V2.10 B1813,2013-11-03 05:22:00,
2013-11-03 00:27:00,53.4,33.7,29.50,NE,49,2.2,2.2,47,0.00,,,0.00,LWC V2.10 B1813,2013-11-03 05:27:00,
2013-11-03 00:32:00,53.6,33.3,29.50,NE,35,0.0,0.0,46,0.00,,,0.00,LWC V2.10 B1813,2013-11-03 05:32:00,
2013-11-03 00:37:00,53.2,33.5,29.50,NE,35,0.0,0.0,47,0.00,,,0.00,LWC V2.10 B1813,2013-11-03 05:37:00,
2013-11-03 00:43:00,52.3,32.7,29.50,NE,35,0.0,0.0,47,0.00,,,0.00,LWC V2.10 B1813,2013-11-03 05:43:00,
2013-11-03 00:48:00,51.6,32.6,29.50,NE,35,0.0,0.0,48,0.00,,,0.00,LWC V2.10 B1813,2013-11-03 05:48:00,
2013-11-03 00:53:00,51.4,32.4,29.50,NW,321,0.0,0.0,48,0.00,,,0.00,LWC V2.10 B1813,2013-11-03 05:53:00,
2013-11-03 00:58:00,51.3,32.8,29.50,NW,320,0.0,0.0,49,0.00,,,0.00,LWC V2.10 B1813,2013-11-03 05:58:00,
2013-11-03 01:03:00,51.6,33.1,29.50,NW,308,2.7,3.1,49,0.00,,,0.00,LWC V2.10 B1813,2013-11-03 06:03:00,
2013-11-03 01:08:00,51.4,32.9,29.50,NW,316,0.0,0.0,49,0.00,,,0.00,LWC V2.10 B1813,2013-11-03 06:08:00,
2013-11-03 01:13:00,51.1,32.6,29.50,NNW,332,0.0,0.0,49,0.00,,,0.00,LWC V2.10 B1813,2013-11-03 06:13:00,
2013-11-03 01:18:00,50.9,32.4,29.50,NNW,332,0.0,0.0,49,0.00,,,0.00,LWC V2.10 B1813,2013-11-03 06:18:00,
2013-11-03 01:23:00,50.7,32.3,29.50,NNW,332,0.0,0.0,49,0.00,,,0.00,LWC V2.10 B1813,2013-11-03 06:23:00,
2013-11-03 01:28:00,50.4,32.4,29.50,NNW,332,0.0,2.2,50,0.00,,,0.00,LWC V2.10 B1813,2013-11-03 06:28:00,
2013-11-03 01:33:00,50.2,32.3,29.50,NNW,335,0.0,0.0,50,0.00,,,0.00,LWC V2.10 B1813,2013-11-03 06:33:00,
2013-11-03 01:38:00,50.5,32.6,29.47,NW,325,2.2,3.1,50,0.00,,,0.00,LWC V2.10 B1813,2013-11-03 06:38:00,
2013-11-03 01:43:00,50.5,32.6,29.47,North,353,2.7,2.7,50,0.00,,,0.00,LWC V2.10 B1813,2013-11-03 06:43:00,
2013-11-03 01:48:00,50.2,32.3,29.47,North,7,2.7,3.1,50,0.00,,,0.00,LWC V2.10 B1813,2013-11-03 06:48:00,
2013-11-03 01:53:00,50.0,32.6,29.47,North,0,3.1,3.6,51,0.00,,,0.00,LWC V2.10 B1813,2013-11-03 06:53:00,
2013-11-03 01:58:00,50.2,32.8,29.47,North,0,2.2,2.2,51,0.00,,,0.00,LWC V2.10 B1813,2013-11-03 06:58:00,
2013-11-03 01:03:00,50.7,33.3,29.47,North,4,2.2,2.2,51,0.00,,,0.00,LWC V2.10 B1813,2013-11-03 07:03:00,
2013-11-03 01:08:00,51.3,34.2,29.47,North,3,0.0,2.2,52,0.00,,,0.00,LWC V2.10 B1813,2013-11-03 07:08:00,
2013-11-03 01:13:00,51.3,34.2,29.47,North,3,0.0,0.0,52,0.00,,,0.00,LWC V2.10 B1813,2013-11-03 07:13:00,
2013-11-03 01:18:00,50.7,33.7,29.47,North,3,0.0,0.0,52,0.00,,,0.00,LWC V2.10 B1813,2013-11-03 07:18:00,
2013-11-03 01:23:00,50.4,33.4,29.47,North,3,0.0,0.0,52,0.00,,,0.00,LWC V2.10 B1813,2013-11-03 07:23:00,
2013-11-03 01:28:00,50.4,33.4,29.47,North,3,0.0,0.0,52,0.00,,,0.00,LWC V2.10 B1813,2013-11-03 07:28:00,
2013-11-03 01:33:00,50.5,33.6,29.47,North,3,0.0,0.0,52,0.00,,,0.00,LWC V2.10 B1813,2013-11-03 07:33:00,
2013-11-03 01:38:00,50.4,33.4,29.47,North,3,0.0,0.0,52,0.00,,,0.00,LWC V2.10 B1813,2013-11-03 07:38:00,
2013-11-03 01:43:00,50.2,33.2,29.47,North,3,0.0,0.0,52,0.00,,,0.00,LWC V2.10 B1813,2013-11-03 07:43:00,
2013-11-03 01:48:00,50.2,33.2,29.47,North,3,0.0,0.0,52,0.00,,,0.00,LWC V2.10 B1813,2013-11-03 07:48:00,
2013-11-03 01:53:00,50.2,33.2,29.47,North,3,0.0,0.0,52,0.00,,,0.00,LWC V2.10 B1813,2013-11-03 07:53:00,
2013-11-03 01:58:00,50.4,33.9,29.47,NNE,25,0.0,0.0,53,0.00,,,0.00,LWC V2.10 B1813,2013-11-03 07:58:00,
2013-11-03 02:03:00,50.9,34.9,29.47,East,99,0.0,0.0,54,0.00,,,0.00,LWC V2.10 B1813,2013-11-03 08:03:00,
2013-11-03 02:08:00,50.9,34.9,29.47,East,99,0.0,0.0,54,0.00,,,0.00,LWC V2.10 B1813,2013-11-03 08:08:00,
2013-11-03 02:13:00,49.6,34.1,29.47,SE,131,0.0,0.0,55,0.00,,,0.00,LWC V2.10 B1813,2013-11-03 08:13:00,
2013-11-03 02:18:00,49.5,34.4,29.47,ESE,115,0.0,0.0,56,0.00,,,0.00,LWC V2.10 B1813,2013-11-03 08:18:00,
2013-11-03 02:23:00,49.3,34.7,29.44,ESE,106,2.2,3.1,57,0.00,,,0.00,LWC V2.10 B1813,2013-11-03 08:23:00,
2013-11-03 02:28:00,49.6,35.0,29.44,ESE,106,0.0,0.0,57,0.00,,,0.00,LWC V2.10 B1813,2013-11-03 08:28:00,
2013-11-03 02:33:00,49.5,35.3,29.44,ESE,106,0.0,0.0,58,0.00,,,0.00,LWC V2.10 B1813,2013-11-03 08:33:00,
2013-11-03 02:38:00,49.1,35.0,29.44,East,96,0.0,0.0,58,0.00,,,0.00,LWC V2.10 B1813,2013-11-03 08:38:00,
2013-11-03 02:43:00,49.1,34.5,29.44,East,97,2.2,2.7,57,0.00,,,0.00,LWC V2.10 B1813,2013-11-03 08:43:00,
2013-11-03 02:48:00,49.3,34.3,29.44,ENE,71,0.0,0.0,56,0.00,,,0.00,LWC V2.10 B1813,2013-11-03 08:48:00,
2013-11-03 02:53:00,49.6,34.1,29.44,East,99,0.0,0.0,55,0.00,,,0.00,LWC V2.10 B1813,2013-11-03 08:53:00,
2013-11-03 02:58:00,49.5,34.0,29.44,East,99,0.0,0.0,55,0.00,,,0.00,LWC V2.10 B1813,2013-11-03 08:58:00,
2013-11-03 03:03:00,48.7,33.3,29.44,East,99,0.0,0.0,55,0.00,,,0.00,LWC V2.10 B1813,2013-11-03 09:03:00,
2013-11-03 03:08:00,48.6,33.6,29.44,East,91,0.0,0.0,56,0.00,,,0.00,LWC V2.10 B1813,2013-11-03 09:08:00,
2013-11-03 03:13:00,48.4,33.4,29.44,East,90,0.0,0.0,56,0.00,,,0.00,LWC V2.10 B1813,2013-11-03 09:13:00,
2013-11-03 03:18:00,48.6,33.6,29.44,ESE,106,2.2,2.2,56,0.00,,,0.00,LWC V2.10 B1813,2013-11-03 09:18:00,
2013-11-03 03:23:00,48.7,33.8,29.44,ENE,73,0.0,0.0,56,0.00,,,0.00,LWC V2.10 B1813,2013-11-03 09:23:00,
2013-11-03 03:28:00,48.9,33.5,29.44,East,91,0.0,0.0,55,0.00,,,0.00,LWC V2.10 B1813,2013-11-03 09:28:00,
2013-11-03 03:33:00,48.9,33.5,29.44,ESE,102,0.0,2.2,55,0.00,,,0.00,LWC V2.10 B1813,2013-11-03 09:33:00,
2013-11-03 03:38:00,49.1,33.6,29.44,East,97,3.1,3.1,55,0.00,,,0.00,LWC V2.10 B1813,2013-11-03 09:38:00,
2013-11-03 03:43:00,49.3,33.8,29.44,East,86,0.0,2.7,55,0.00,,,0.00,LWC V2.10 B1813,2013-11-03 09:43:00,
2013-11-03 03:48:00,49.3,34.3,29.44,ENE,60,2.2,3.1,56,0.00,,,0.00,LWC V2.10 B1813,2013-11-03 09:48:00,
2013-11-03 03:53:00,49.8,34.8,29.44,East,88,3.1,4.0,56,0.00,,,0.00,LWC V2.10 B1813,2013-11-03 09:53:00,
2013-11-03 03:58:00,50.2,34.6,29.44,ENE,66,3.1,4.9,55,0.00,,,0.00,LWC V2.10 B1813,2013-11-03 09:58:00,
2013-11-03 04:03:00,50.4,34.4,29.44,East,87,2.2,4.0,54,0.00,,,0.00,LWC V2.10 B1813,2013-11-03 10:03:00,
2013-11-03 04:08:00,50.4,34.4,29.44,East,87,3.6,4.0,54,0.00,,,0.00,LWC V2.10 B1813,2013-11-03 10:08:00,
2013-11-03 04:13:00,50.4,33.9,29.44,ENE,58,3.1,4.9,53,0.00,,,0.00,LWC V2.10 B1813,2013-11-03 10:13:00,
2013-11-03 04:18:00,50.5,34.0,29.44,ENE,68,2.2,4.9,53,0.00,,,0.00,LWC V2.10 B1813,2013-11-03 10:18:00,
2013-11-03 04:23:00,50.5,34.0,29.44,ENE,70,2.2,3.6,53,0.00,,,0.00,LWC V2.10 B1813,2013-11-03 10:23:00,
2013-11-03 04:28:00,50.5,34.0,29.44,East,91,0.0,3.1,53,0.00,,,0.00,LWC V2.10 B1813,2013-11-03 10:28:00,
2013-11-03 04:33:00,50.2,33.7,29.44,East,92,0.0,0.0,53,0.00,,,0.00,LWC V2.10 B1813,2013-11-03 10:33:00,
2013-11-03 04:38:00,49.1,33.2,29.44,East,91,0.0,0.0,54,0.00,,,0.00,LWC V2.10 B1813,2013-11-03 10:38:00,
2013-11-03 04:43:00,48.6,33.1,29.44,East,91,0.0,0.0,55,0.00,,,0.00,LWC V2.10 B1813,2013-11-03 10:43:00,
2013-11-03 04:48:00,48.2,32.8,29.44,East,92,0.0,0.0,55,0.00,,,0.00,LWC V2.10 B1813,2013-11-03 10:48:00,
2013-11-03 04:53:00,47.7,33.6,29.44,East,91,0.0,0.0,58,0.00,,,0.00,LWC V2.10 B1813,2013-11-03 10:53:00,
2013-11-03 04:58:00,47.3,34.1,29.44,East,91,0.0,0.0,60,0.00,,,0.00,LWC V2.10 B1813,2013-11-03 10:58:00,
2013-11-03 05:03:00,47.3,34.9,29.44,East,91,0.0,0.0,62,0.00,,,0.00,LWC V2.10 B1813,2013-11-03 11:03:00,
2013-11-03 05:08:00,47.3,35.3,29.44,East,91,0.0,0.0,63,0.00,,,0.00,LWC V2.10 B1813,2013-11-03 11:08:00,
2013-11-03 05:13:00,47.1,35.2,29.44,East,91,0.0,0.0,63,0.00,,,0.00,LWC V2.10 B1813,2013-11-03 11:13:00,
2013-11-03 05:18:00,46.9,34.6,29.44,East,91,0.0,0.0,62,0.00,,,0.00,LWC V2.10 B1813,2013-11-03 11:18:00,
2013-11-03 05:23:00,46.9,34.2,29.44,East,91,0.0,0.0,61,0.00,,,0.00,LWC V2.10 B1813,2013-11-03 11:23:00,
2013-11-03 05:28:00,46.8,34.4,29.44,ENE,68,0.0,0.0,62,0.00,,,0.00,LWC V2.10 B1813,2013-11-03 11:28:00,
2013-11-03 05:33:00,46.6,35.1,29.44,ENE,68,0.0,0.0,64,0.00,,,0.00,LWC V2.10 B1813,2013-11-03 11:33:00,
2013-11-03 05:38:00,46.2,35.5,29.44,ENE,66,0.0,0.0,66,0.00,,,0.00,LWC V2.10 B1813,2013-11-03 11:38:00,
2013-11-03 05:43:00,45.5,35.6,29.44,ENE,66,0.0,0.0,68,0.00,,,0.00,LWC V2.10 B1813,2013-11-03 11:43:00,
2013-11-03 05:48:00,45.3,35.8,29.44,ENE,66,0.0,0.0,69,0.00,,,0.00,LWC V2.10 B1813,2013-11-03 11:48:00,
2013-11-03 05:53:00,45.1,35.9,29.44,ENE,66,0.0,0.0,70,0.00,,,0.00,LWC V2.10 B1813,2013-11-03 11:53:00,
2013-11-03 05:58:00,44.8,36.0,29.44,ENE,66,0.0,0.0,71,0.00,,,0.00,LWC V2.10 B1813,2013-11-03 11:58:00,
2013-11-03 06:03:00,44.4,36.0,29.44,ENE,66,0.0,0.0,72,0.00,,,0.00,LWC V2.10 B1813,2013-11-03 12:03:00,
2013-11-03 06:08:00,44.2,36.1,29.44,ENE,66,0.0,0.0,73,0.00,,,0.00,LWC V2.10 B1813,2013-11-03 12:08:00,
2013-11-03 06:13:00,44.1,36.3,29.44,ENE,66,0.0,0.0,74,0.00,,,0.00,LWC V2.10 B1813,2013-11-03 12:13:00,
2013-11-03 06:18:00,43.9,36.1,29.44,ENE,66,0.0,0.0,74,0.00,,,0.00,LWC V2.10 B1813,2013-11-03 12:18:00,
2013-11-03 06:23:00,43.5,35.8,29.44,ENE,66,0.0,0.0,74,0.00,,,0.00,LWC V2.10 B1813,2013-11-03 12:23:00,
2013-11-03 06:28:00,43.3,36.0,29.44,ENE,66,0.0,0.0,75,0.00,,,0.00,LWC V2.10 B1813,2013-11-03 12:28:00,
2013-11-03 06:33:00,43.5,36.5,29.44,ENE,66,0.0,0.0,76,0.00,,,0.00,LWC V2.10 B1813,2013-11-03 12:33:00,
2013-11-03 06:38:00,43.3,36.3,29.44,ENE,66,0.0,0.0,76,0.00,,,0.00,LWC V2.10 B1813,2013-11-03 12:38:00,
2013-11-03 06:43:00,42.8,35.8,29.44,ENE,66,0.0,0.0,76,0.00,,,0.00,LWC V2.10 B1813,2013-11-03 12:43:00,
2013-11-03 06:48:00,42.6,35.9,29.44,ENE,66,0.0,0.0,77,0.00,,,0.00,LWC V2.10 B1813,2013-11-03 12:48:00,
2013-11-03 06:53:00,42.6,35.9,29.44,ENE,60,0.0,0.0,77,0.00,,,0.00,LWC V2.10 B1813,2013-11-03 12:53:00,
2013-11-03 06:58:00,42.8,36.1,29.44,NNE,20,3.1,3.1,77,0.00,,,0.00,LWC V2.10 B1813,2013-11-03 12:58:00,
2013-11-03 07:03:00,43.3,36.6,29.44,NNE,22,2.7,3.1,77,0.00,,,0.00,LWC V2.10 B1813,2013-11-03 13:03:00,
2013-11-03 07:08:00,43.9,37.5,29.44,NNE,19,2.7,2.7,78,0.00,,,0.00,LWC V2.10 B1813,2013-11-03 13:08:00,
2013-11-03 07:13:00,44.2,37.8,29.44,NNE,19,0.0,0.0,78,0.00,,,0.00,LWC V2.10 B1813,2013-11-03 13:13:00,
2013-11-03 07:18:00,44.6,38.2,29.47,NNE,19,0.0,0.0,78,0.00,,,0.00,LWC V2.10 B1813,2013-11-03 13:18:00,
2013-11-03 07:23:00,45.1,39.0,29.47,NNE,19,0.0,0.0,79,0.00,,,0.00,LWC V2.10 B1813,2013-11-03 13:23:00,
2013-11-03 07:28:00,45.9,39.7,29.47,NNE,19,0.0,0.0,79,0.00,,,0.00,LWC V2.10 B1813,2013-11-03 13:28:00,
2013-11-03 07:33:00,46.8,40.6,29.47,NNE,19,0.0,0.0,79,0.00,,,0.00,LWC V2.10 B1813,2013-11-03 13:33:00,
2013-11-03 07:38:00,47.3,41.4,29.44,ESE,115,0.0,0.0,80,0.00,,,0.00,LWC V2.10 B1813,2013-11-03 13:38:00,
2013-11-03 07:43:00,48.2,42.0,29.44,ESE,115,0.0,0.0,79,0.00,,,0.00,LWC V2.10 B1813,2013-11-03 13:43:00,
2013-11-03 07:48:00,48.9,42.4,29.44,ESE,115,0.0,0.0,78,0.00,,,0.00,LWC V2.10 B1813,2013-11-03 13:48:00,
2013-11-03 07:53:00,49.5,42.6,29.44,ESE,115,0.0,0.0,77,0.00,,,0.00,LWC V2.10 B1813,2013-11-03 13:53:00,
2013-11-03 07:58:00,49.5,42.2,29.44,SE,131,0.0,0.0,76,0.00,,,0.00,LWC V2.10 B1813,2013-11-03 13:58:00,
2013-11-03 08:03:00,50.2,42.6,29.44,ESE,115,0.0,3.1,75,0.00,,,0.00,LWC V2.10 B1813,2013-11-03 14:03:00,
2013-11-03 08:08:00,51.3,43.3,29.44,East,100,0.0,2.7,74,0.00,,,0.00,LWC V2.10 B1813,2013-11-03 14:08:00,
2013-11-03 08:13:00,52.0,43.6,29.44,SE,126,3.6,3.6,73,0.00,,,0.00,LWC V2.10 B1813,2013-11-03 14:13:00,
2013-11-03 08:18:00,52.5,43.8,29.44,ENE,77,3.6,4.0,72,0.00,,,0.00,LWC V2.10 B1813,2013-11-03 14:18:00,
2013-11-03 08:23:00,52.9,43.7,29.44,East,99,2.2,6.3,71,0.00,,,0.00,LWC V2.10 B1813,2013-11-03 14:23:00,
2013-11-03 08:28:00,53.4,43.5,29.44,ENE,72,2.7,5.4,69,0.00,,,0.00,LWC V2.10 B1813,2013-11-03 14:28:00,
2013-11-03 08:33:00,54.0,43.3,29.44,ESE,122,4.0,6.3,67,0.00,,,0.00,LWC V2.10 B1813,2013-11-03 14:33:00,
2013-11-03 08:38:00,54.3,42.0,29.44,ESE,111,3.1,5.8,63,0.00,,,0.00,LWC V2.10 B1813,2013-11-03 14:38:00,
2013-11-03 08:43:00,54.3,40.7,29.44,East,86,3.1,6.3,60,0.00,,,0.00,LWC V2.10 B1813,2013-11-03 14:43:00,
2013-11-03 08:48:00,54.7,41.1,29.47,SE,140,6.3,7.6,60,0.00,,,0.00,LWC V2.10 B1813,2013-11-03 14:48:00,
2013-11-03 08:53:00,54.7,39.7,29.47,South,174,5.4,7.2,57,0.00,,,0.00,LWC V2.10 B1813,2013-11-03 14:53:00,
2013-11-03 08:58:00,55.0,39.6,29.47,South,191,6.3,6.3,56,0.00,,,0.00,LWC V2.10 B1813,2013-11-03 14:58:00,
2013-11-03 09:03:00,55.6,38.7,29.47,SE,131,5.4,10.1,53,0.00,,,0.00,LWC V2.10 B1813,2013-11-03 15:03:00,
2013-11-03 09:08:00,55.9,38.6,29.47,SSE,163,3.1,5.8,52,0.00,,,0.00,LWC V2.10 B1813,2013-11-03 15:08:00,
2013-11-03 09:13:00,56.3,38.4,29.47,ENE,64,3.1,5.8,51,0.00,,,0.00,LWC V2.10 B1813,2013-11-03 15:13:00,
2013-11-03 09:18:00,56.7,38.7,29.47,NE,54,2.7,7.6,51,0.00,,,0.00,LWC V2.10 B1813,2013-11-03 15:18:00,
2013-11-03 09:23:00,56.8,38.4,29.47,East,86,5.8,5.8,50,0.00,,,0.00,LWC V2.10 B1813,2013-11-03 15:23:00,
2013-11-03 09:28:00,57.0,38.6,29.47,East,99,4.0,7.6,50,0.00,,,0.00,LWC V2.10 B1813,2013-11-03 15:28:00,
2013-11-03 09:33:00,57.4,38.4,29.47,SSE,150,0.0,5.8,49,0.00,,,0.00,LWC V2.10 B1813,2013-11-03 15:33:00,
2013-11-03 09:38:00,57.9,38.9,29.47,SSE,160,7.2,7.2,49,0.00,,,0.00,LWC V2.10 B1813,2013-11-03 15:38:00,
2013-11-03 09:43:00,58.3,39.2,29.47,SE,125,5.8,5.8,49,0.00,,,0.00,LWC V2.10 B1813,2013-11-03 15:43:00,
2013-11-03 09:48:00,58.6,39.5,29.47,ESE,120,5.4,5.4,49,0.00,,,0.00,LWC V2.10 B1813,2013-11-03 15:48:00,
2013-11-03 09:53:00,58.6,39.0,29.47,ENE,78,3.6,7.6,48,0.00,,,0.00,LWC V2.10 B1813,2013-11-03 15:53:00,
2013-11-03 09:58:00,58.8,39.2,29.47,SSW,196,4.0,7.6,48,0.00,,,0.00,LWC V2.10 B1813,2013-11-03 15:58:00,
2013-11-03 10:03:00,59.4,39.7,29.47,SE,134,6.3,6.3,48,0.00,,,0.00,LWC V2.10 B1813,2013-11-03 16:03:00,
2013-11-03 10:08:00,59.9,39.6,29.47,East,101,8.7,8.7,47,0.00,,,0.00,LWC V2.10 B1813,2013-11-03 16:08:00,
2013-11-03 10:13:00,60.1,39.8,29.47,East,91,5.4,7.6,47,0.00,,,0.00,LWC V2.10 B1813,2013-11-03 16:13:00,
2013-11-03 10:18:00,60.4,40.1,29.44,South,173,3.1,8.7,47,0.00,,,0.00,LWC V2.10 B1813,2013-11-03 16:18:00,
2013-11-03 10:23:00,61.0,39.5,29.44,SE,146,10.1,10.1,45,0.00,,,0.00,LWC V2.10 B1813,2013-11-03 16:23:00,
2013-11-03 10:28:00,60.6,39.2,29.44,SSW,205,3.6,8.7,45,0.00,,,0.00,LWC V2.10 B1813,2013-11-03 16:28:00,
2013-11-03 10:33:00,60.8,38.7,29.44,SSE,158,3.6,10.1,44,0.00,,,0.00,LWC V2.10 B1813,2013-11-03 16:33:00,
2013-11-03 10:38:00,61.0,38.3,29.44,South,183,8.7,10.5,43,0.00,,,0.00,LWC V2.10 B1813,2013-11-03 16:38:00,
2013-11-03 10:43:00,61.2,38.5,29.44,SSE,149,5.8,8.3,43,0.00,,,0.00,LWC V2.10 B1813,2013-11-03 16:43:00,
2013-11-03 10:48:00,61.7,39.0,29.44,ESE,121,5.8,6.3,43,0.00,,,0.00,LWC V2.10 B1813,2013-11-03 16:48:00,
2013-11-03 10:53:00,62.1,38.7,29.44,SE,143,3.1,8.3,42,0.00,,,0.00,LWC V2.10 B1813,2013-11-03 16:53:00,
2013-11-03 10:58:00,62.6,39.2,29.44,ENE,67,4.0,5.8,42,0.00,,,0.00,LWC V2.10 B1813,2013-11-03 16:58:00,
2013-11-03 11:03:00,63.0,38.9,29.44,SE,146,3.6,5.8,41,0.00,,,0.00,LWC V2.10 B1813,2013-11-03 17:03:00,
2013-11-03 11:08:00,62.6,37.3,29.44,SE,141,5.4,8.3,39,0.00,,,0.00,LWC V2.10 B1813,2013-11-03 17:08:00,
2013-11-03 11:13:00,62.4,37.1,29.44,SSE,155,6.3,10.1,39,0.00,,,0.00,LWC V2.10 B1813,2013-11-03 17:13:00,
2013-11-03 11:18:00,62.6,37.3,29.44,SE,140,7.6,7.6,39,0.00,,,0.00,LWC V2.10 B1813,2013-11-03 17:18:00,
2013-11-03 11:23:00,62.4,37.1,29.44,SSE,156,6.7,8.7,39,0.00,,,0.00,LWC V2.10 B1813,2013-11-03 17:23:00,
2013-11-03 11:28:00,62.6,36.6,29.44,SSE,162,5.4,7.6,38,0.00,,,0.00,LWC V2.10 B1813,2013-11-03 17:28:00,
2013-11-03 11:33:00,63.5,38.1,29.44,East,101,4.5,5.8,39,0.00,,,0.00,LWC V2.10 B1813,2013-11-03 17:33:00,
2013-11-03 11:38:00,63.7,38.3,29.44,SSW,202,7.6,7.6,39,0.00,,,0.00,LWC V2.10 B1813,2013-11-03 17:38:00,
2013-11-03 11:43:00,62.8,36.8,29.44,SW,220,6.7,8.1,38,0.00,,,0.00,LWC V2.10 B1813,2013-11-03 17:43:00,
2013-11-03 11:48:00,63.1,37.1,29.44,SSW,206,4.0,4.9,38,0.00,,,0.00,LWC V2.10 B1813,2013-11-03 17:48:00,
2013-11-03 11:53:00,63.5,37.4,29.44,SW,214,4.9,7.6,38,0.00,,,0.00,LWC V2.10 B1813,2013-11-03 17:53:00,
2013-11-03 11:58:00,63.7,37.6,29.44,SSW,202,5.4,5.4,38,0.00,,,0.00,LWC V2.10 B1813,2013-11-03 17:58:00,
2013-11-03 12:03:00,64.2,38.1,29.41,East,92,4.0,7.2,38,0.00,,,0.00,LWC V2.10 B1813,2013-11-03 18:03:00,
2013-11-03 12:08:00,65.3,39.0,29.41,South,191,3.6,5.4,38,0.00,,,0.00,LWC V2.10 B1813,2013-11-03 18:08:00,
2013-11-03 12:13:00,65.3,39.0,29.41,ENE,74,3.6,9.6,38,0.00,,,0.00,LWC V2.10 B1813,2013-11-03 18:13:00,
2013-11-03 12:18:00,65.1,38.9,29.41,SSW,192,5.4,6.3,38,0.00,,,0.00,LWC V2.10 B1813,2013-11-03 18:18:00,
2013-11-03 12:23:00,65.3,39.0,29.41,NE,45,3.1,8.7,38,0.00,,,0.00,LWC V2.10 B1813,2013-11-03 18:23:00,
2013-11-03 12:28:00,65.7,39.4,29.41,East,94,4.0,5.8,38,0.00,,,0.00,LWC V2.10 B1813,2013-11-03 18:28:00,
2013-11-03 12:33:00,65.8,39.5,29.38,South,175,5.8,6.7,38,0.00,,,0.00,LWC V2.10 B1813,2013-11-03 18:33:00,
2013-11-03 12:38:00,66.4,40.0,29.38,SSE,162,4.0,5.4,38,0.00,,,0.00,LWC V2.10 B1813,2013-11-03 18:38:00,
2013-11-03 12:43:00,66.0,39.7,29.38,East,86,7.6,8.1,38,0.00,,,0.00,LWC V2.10 B1813,2013-11-03 18:43:00,
2013-11-03 12:48:00,65.8,39.5,29.38,South,191,3.1,5.8,38,0.00,,,0.00,LWC V2.10 B1813,2013-11-03 18:48:00,
2013-11-03 12:53:00,66.4,39.3,29.38,SSW,198,7.6,11.0,37,0.00,,,0.00,LWC V2.10 B1813,2013-11-03 18:53:00,
2013-11-03 12:58:00,65.7,38.7,29.38,ESE,106,7.6,11.0,37,0.00,,,0.00,LWC V2.10 B1813,2013-11-03 18:58:00,
2013-11-03 13:03:00,66.4,39.3,29.38,ENE,75,4.0,8.7,37,0.00,,,0.00,LWC V2.10 B1813,2013-11-03 19:03:00,
2013-11-03 13:08:00,66.9,39.8,29.38,SSW,202,3.1,8.1,37,0.00,,,0.00,LWC V2.10 B1813,2013-11-03 19:08:00,
2013-11-03 13:13:00,66.4,39.3,29.38,South,186,5.4,7.6,37,0.00,,,0.00,LWC V2.10 B1813,2013-11-03 19:13:00,
2013-11-03 13:18:00,67.3,40.1,29.35,NE,43,4.0,7.2,37,0.00,,,0.00,LWC V2.10 B1813,2013-11-03 19:18:00,
2013-11-03 13:23:00,66.4,39.3,29.35,SW,214,6.3,8.7,37,0.00,,,0.00,LWC V2.10 B1813,2013-11-03 19:23:00,
2013-11-03 13:28:00,66.6,38.8,29.35,SSE,147,4.0,7.6,36,0.00,,,0.00,LWC V2.10 B1813,2013-11-03 19:28:00,
2013-11-03 13:33:00,66.9,39.1,29.35,ESE,108,3.6,8.3,36,0.00,,,0.00,LWC V2.10 B1813,2013-11-03 19:33:00,
2013-11-03 13:38:00,67.5,39.6,29.35,SSE,158,2.7,6.3,36,0.00,,,0.00,LWC V2.10 B1813,2013-11-03 19:38:00,
2013-11-03 13:43:00,66.7,38.9,29.35,ENE,76,4.0,4.5,36,0.00,,,0.00,LWC V2.10 B1813,2013-11-03 19:43:00,
2013-11-03 13:48:00,67.5,39.6,29.35,ENE,68,5.8,6.7,36,0.00,,,0.00,LWC V2.10 B1813,2013-11-03 19:48:00,
2013-11-03 13:53:00,67.6,39.0,29.35,NW,314,4.0,8.1,35,0.00,,,0.00,LWC V2.10 B1813,2013-11-03 19:53:00,
2013-11-03 13:58:00,67.6,39.7,29.35,NE,56,8.3,8.3,36,0.00,,,0.00,LWC V2.10 B1813,2013-11-03 19:58:00,
2013-11-03 14:03:00,68.0,39.3,29.35,ENE,70,3.1,3.6,35,0.00,,,0.00,LWC V2.10 B1813,2013-11-03 20:03:00,
2013-11-03 14:08:00,68.0,39.3,29.35,NE,55,5.4,6.3,35,0.00,,,0.00,LWC V2.10 B1813,2013-11-03 20:08:00,
2013-11-03 14:13:00,68.0,39.3,29.35,SE,140,6.3,6.3,35,0.00,,,0.00,LWC V2.10 B1813,2013-11-03 20:13:00,
2013-11-03 14:18:00,68.2,39.5,29.35,SSE,163,3.1,7.6,35,0.00,,,0.00,LWC V2.10 B1813,2013-11-03 20:18:00,
2013-11-03 14:23:00,67.6,39.0,29.35,SE,143,3.1,5.4,35,0.00,,,0.00,LWC V2.10 B1813,2013-11-03 20:23:00,
2013-11-03 14:28:00,66.7,38.2,29.35,SE,143,3.1,5.8,35,0.00,,,0.00,LWC V2.10 B1813,2013-11-03 20:28:00,
2013-11-03 14:33:00,66.9,38.4,29.32,East,94,7.6,10.5,35,0.00,,,0.00,LWC V2.10 B1813,2013-11-03 20:33:00,
2013-11-03 14:38:00,67.3,38.7,29.32,East,96,3.6,5.8,35,0.00,,,0.00,LWC V2.10 B1813,2013-11-03 20:38:00,
2013-11-03 14:43:00,67.1,38.5,29.32,SSE,152,5.4,6.7,35,0.00,,,0.00,LWC V2.10 B1813,2013-11-03 20:43:00,
2013-11-03 14:48:00,66.9,38.4,29.32,SE,141,3.1,10.1,35,0.00,,,0.00,LWC V2.10 B1813,2013-11-03 20:48:00,
2013-11-03 14:53:00,67.6,39.0,29.32,ESE,113,6.3,8.1,35,0.00,,,0.00,LWC V2.10 B1813,2013-11-03 20:53:00,
2013-11-03 14:58:00,68.9,39.4,29.32,SSE,153,5.8,10.1,34,0.00,,,0.00,LWC V2.10 B1813,2013-11-03 20:58:00,
2013-11-03 15:03:00,68.9,39.4,29.32,ENE,61,3.6,8.1,34,0.00,,,0.00,LWC V2.10 B1813,2013-11-03 21:03:00,
2013-11-03 15:08:00,67.5,38.1,29.32,SSE,151,4.9,8.3,34,0.00,,,0.00,LWC V2.10 B1813,2013-11-03 21:08:00,
2013-11-03 15:13:00,67.5,38.1,29.32,SSE,160,6.3,6.3,34,0.00,,,0.00,LWC V2.10 B1813,2013-11-03 21:13:00,
2013-11-03 15:18:00,68.2,38.7,29.32,SSE,147,6.3,7.6,34,0.00,,,0.00,LWC V2.10 B1813,2013-11-03 21:18:00,
2013-11-03 15:23:00,67.6,38.3,29.32,East,96,7.2,7.2,34,0.00,,,0.00,LWC V2.10 B1813,2013-11-03 21:23:00,
2013-11-03 15:28:00,67.8,39.2,29.32,NE,52,4.0,4.0,35,0.00,,,0.00,LWC V2.10 B1813,2013-11-03 21:28:00,
2013-11-03 15:33:00,68.2,38.7,29.32,SE,124,5.4,8.7,34,0.00,,,0.00,LWC V2.10 B1813,2013-11-03 21:33:00,
2013-11-03 15:38:00,68.0,38.6,29.32,SE,140,9.2,11.0,34,0.00,,,0.00,LWC V2.10 B1813,2013-11-03 21:38:00,
2013-11-03 15:43:00,68.4,38.9,29.32,ENE,71,8.7,8.7,34,0.00,,,0.00,LWC V2.10 B1813,2013-11-03 21:43:00,
2013-11-03 15:48:00,68.2,38.7,29.32,East,89,5.4,8.1,34,0.00,,,0.00,LWC V2.10 B1813,2013-11-03 21:48:00,
2013-11-03 15:53:00,68.0,38.6,29.32,ESE,110,4.0,11.0,34,0.00,,,0.00,LWC V2.10 B1813,2013-11-03 21:53:00,
2013-11-03 15:58:00,67.6,38.3,29.32,SE,128,6.3,10.1,34,0.00,,,0.00,LWC V2.10 B1813,2013-11-03 21:58:00,
2013-11-03 16:03:00,67.8,38.4,29.32,South,177,5.8,8.7,34,0.00,,,0.00,LWC V2.10 B1813,2013-11-03 22:03:00,
2013-11-03 16:08:00,66.9,37.6,29.32,SSE,167,6.3,8.7,34,0.00,,,0.00,LWC V2.10 B1813,2013-11-03 22:08:00,
2013-11-03 16:13:00,66.0,37.6,29.32,ESE,113,2.2,7.6,35,0.00,,,0.00,LWC V2.10 B1813,2013-11-03 22:13:00,
2013-11-03 16:18:00,65.1,36.8,29.32,SSE,167,5.8,5.8,35,0.00,,,0.00,LWC V2.10 B1813,2013-11-03 22:18:00,
2013-11-03 16:23:00,64.8,35.7,29.32,SSW,205,6.3,8.1,34,0.00,,,0.00,LWC V2.10 B1813,2013-11-03 22:23:00,
2013-11-03 16:28:00,65.5,37.1,29.32,SSE,149,2.7,6.7,35,0.00,,,0.00,LWC V2.10 B1813,2013-11-03 22:28:00,
2013-11-03 16:33:00,65.1,36.8,29.32,South,173,2.7,7.6,35,0.00,,,0.00,LWC V2.10 B1813,2013-11-03 22:33:00,
2013-11-03 16:38:00,64.9,36.6,29.32,SE,142,5.8,8.1,35,0.00,,,0.00,LWC V2.10 B1813,2013-11-03 22:38:00,
2013-11-03 16:43:00,64.4,36.1,29.32,East,101,4.9,6.3,35,0.00,,,0.00,LWC V2.10 B1813,2013-11-03 22:43:00,
2013-11-03 16:48:00,64.2,36.7,29.32,ESE,105,5.8,6.3,36,0.00,,,0.00,LWC V2.10 B1813,2013-11-03 22:48:00,
2013-11-03 16:53:00,63.9,36.4,29.32,East,100,5.8,8.1,36,0.00,,,0.00,LWC V2.10 B1813,2013-11-03 22:53:00,
2013-11-03 16:58:00,63.7,36.2,29.32,East,88,3.1,6.3,36,0.00,,,0.00,LWC V2.10 B1813,2013-11-03 22:58:00,
2013-11-03 17:03:00,63.5,36.1,29.32,SSE,151,5.4,5.4,36,0.00,,,0.00,LWC V2.10 B1813,2013-11-03 23:03:00,
2013-11-03 17:08:00,63.3,35.9,29.32,ENE,66,6.3,6.3,36,0.00,,,0.00,LWC V2.10 B1813,2013-11-03 23:08:00,
2013-11-03 17:13:00,63.3,35.9,29.32,ESE,114,2.7,5.4,36,0.00,,,0.00,LWC V2.10 B1813,2013-11-03 23:13:00,
2013-11-03 17:18:00,63.1,35.7,29.32,SE,129,3.1,4.9,36,0.00,,,0.00,LWC V2.10 B1813,2013-11-03 23:18:00,
2013-11-03 17:23:00,62.8,36.1,29.32,ESE,111,5.8,6.3,37,0.00,,,0.00,LWC V2.10 B1813,2013-11-03 23:23:00,
2013-11-03 17:28:00,62.6,36.0,29.32,South,169,3.6,5.8,37,0.00,,,0.00,LWC V2.10 B1813,2013-11-03 23:28:00,
2013-11-03 17:33:00,62.6,36.0,29.32,SW,231,3.1,4.9,37,0.00,,,0.00,LWC V2.10 B1813,2013-11-03 23:33:00,
2013-11-03 17:38:00,62.4,35.8,29.32,SE,134,3.1,5.4,37,0.00,,,0.00,LWC V2.10 B1813,2013-11-03 23:38:00,
2013-11-03 17:43:00,62.2,35.6,29.32,ESE,105,5.4,6.3,37,0.00,,,0.00,LWC V2.10 B1813,2013-11-03 23:43:00,
2013-11-03 17:48:00,62.2,35.6,29.32,SE,135,4.9,5.4,37,0.00,,,0.00,LWC V2.10 B1813,2013-11-03 23:48:00,
2013-11-03 17:53:00,62.2,35.6,29.32,SE,138,3.6,4.0,37,0.00,,,0.00,LWC V2.10 B1813,2013-11-03 23:53:00,
2013-11-03 17:58:00,62.2,35.6,29.32,SE,145,3.6,4.0,37,0.00,,,0.00,LWC V2.10 B1813,2013-11-03 23:58:00,
2013-11-03 18:03:00,62.2,35.6,29.32,SE,144,2.7,4.0,37,0.00,,,0.00,LWC V2.10 B1813,2013-11-04 00:03:00,
2013-11-03 18:08:00,62.2,35.6,29.32,East,96,3.6,4.9,37,0.00,,,0.00,LWC V2.10 B1813,2013-11-04 00:08:00,
2013-11-03 18:13:00,62.1,35.5,29.32,SE,136,0.0,4.9,37,0.00,,,0.00,LWC V2.10 B1813,2013-11-04 00:13:00,
2013-11-03 18:18:00,62.1,35.5,29.35,ESE,111,2.2,3.1,37,0.00,,,0.00,LWC V2.10 B1813,2013-11-04 00:18:00,
2013-11-03 18:23:00,62.1,35.5,29.35,SE,143,2.7,4.0,37,0.00,,,0.00,LWC V2.10 B1813,2013-11-04 00:23:00,
2013-11-03 18:28:00,62.1,35.5,29.35,ESE,114,3.1,4.0,37,0.00,,,0.00,LWC V2.10 B1813,2013-11-04 00:28:00,
2013-11-03 18:33:00,61.9,35.3,29.35,SE,129,2.2,4.0,37,0.00,,,0.00,LWC V2.10 B1813,2013-11-04 00:33:00,
2013-11-03 18:38:00,61.7,35.2,29.32,SE,128,0.0,4.9,37,0.00,,,0.00,LWC V2.10 B1813,2013-11-04 00:38:00,
2013-11-03 18:43:00,61.7,35.2,29.32,East,85,2.7,3.1,37,0.00,,,0.00,LWC V2.10 B1813,2013-11-04 00:43:00,
2013-11-03 18:48:00,61.3,34.8,29.32,East,89,3.6,4.0,37,0.00,,,0.00,LWC V2.10 B1813,2013-11-04 00:48:00,
2013-11-03 18:53:00,61.2,34.7,29.32,ESE,108,4.0,4.9,37,0.00,,,0.00,LWC V2.10 B1813,2013-11-04 00:53:00,
2013-11-03 18:58:00,61.2,34.7,29.32,ESE,122,0.0,3.6,37,0.00,,,0.00,LWC V2.10 B1813,2013-11-04 00:58:00,
2013-11-03 19:03:00,61.2,34.7,29.35,East,95,0.0,3.6,37,0.00,,,0.00,LWC V2.10 B1813,2013-11-04 01:03:00,
2013-11-03 19:08:00,61.0,34.5,29.35,ESE,110,2.2,3.1,37,0.00,,,0.00,LWC V2.10 B1813,2013-11-04 01:08:00,
2013-11-03 19:13:00,61.2,35.4,29.35,ESE,120,2.7,4.0,38,0.00,,,0.00,LWC V2.10 B1813,2013-11-04 01:13:00,
2013-11-03 19:18:00,61.0,35.2,29.35,SE,141,2.7,3.1,38,0.00,,,0.00,LWC V2.10 B1813,2013-11-04 01:18:00,
2013-11-03 19:23:00,61.0,35.2,29.35,SE,132,2.7,3.6,38,0.00,,,0.00,LWC V2.10 B1813,2013-11-04 01:23:00,
2013-11-03 19:28:00,61.0,35.2,29.35,East,91,2.2,4.0,38,0.00,,,0.00,LWC V2.10 B1813,2013-11-04 01:28:00,
2013-11-03 19:33:00,61.0,35.2,29.35,SE,145,2.7,3.1,38,0.00,,,0.00,LWC V2.10 B1813,2013-11-04 01:33:00,
2013-11-03 19:38:00,60.8,35.7,29.35,SE,135,4.0,4.0,39,0.00,,,0.00,LWC V2.10 B1813,2013-11-04 01:38:00,
2013-11-03 19:43:00,61.0,35.8,29.35,ESE,121,2.7,2.7,39,0.00,,,0.00,LWC V2.10 B1813,2013-11-04 01:43:00,
2013-11-03 19:48:00,61.0,35.8,29.35,ESE,109,2.7,2.7,39,0.00,,,0.00,LWC V2.10 B1813,2013-11-04 01:48:00,
2013-11-03 19:53:00,60.8,35.7,29.35,ENE,72,3.1,3.1,39,0.00,,,0.00,LWC V2.10 B1813,2013-11-04 01:53:00,
2013-11-03 19:58:00,61.0,35.8,29.35,ESE,120,3.1,4.0,39,0.00,,,0.00,LWC V2.10 B1813,2013-11-04 01:58:00,
2013-11-03 20:03:00,61.2,36.6,29.35,ESE,105,4.0,4.0,40,0.00,,,0.00,LWC V2.10 B1813,2013-11-04 02:03:00,
2013-11-03 20:08:00,61.2,36.6,29.35,ESE,110,2.7,2.7,40,0.00,,,0.00,LWC V2.10 B1813,2013-11-04 02:08:00,
2013-11-03 20:13:00,61.2,36.6,29.35,East,90,0.0,2.2,40,0.00,,,0.00,LWC V2.10 B1813,2013-11-04 02:13:00,
2013-11-03 20:18:00,61.2,36.6,29.35,ESE,120,2.2,3.6,40,0.00,,,0.00,LWC V2.10 B1813,2013-11-04 02:18:00,
2013-11-03 20:23:00,61.2,36.6,29.35,SE,128,0.0,3.1,40,0.00,,,0.00,LWC V2.10 B1813,2013-11-04 02:23:00,
2013-11-03 20:28:00,61.0,37.1,29.35,SE,141,0.0,2.7,41,0.00,,,0.00,LWC V2.10 B1813,2013-11-04 02:28:00,
2013-11-03 20:33:00,60.8,37.0,29.35,SE,136,4.9,4.9,41,0.00,,,0.00,LWC V2.10 B1813,2013-11-04 02:33:00,
2013-11-03 20:38:00,61.0,37.1,29.35,ESE,104,4.0,5.8,41,0.00,,,0.00,LWC V2.10 B1813,2013-11-04 02:38:00,
2013-11-03 20:43:00,61.2,37.3,29.35,ESE,105,4.0,5.4,41,0.00,,,0.00,LWC V2.10 B1813,2013-11-04 02:43:00,
2013-11-03 20:48:00,61.3,38.0,29.35,East,89,4.9,4.9,42,0.00,,,0.00,LWC V2.10 B1813,2013-11-04 02:48:00,
2013-11-03 20:53:00,61.5,38.2,29.35,East,95,2.7,6.3,42,0.00,,,0.00,LWC V2.10 B1813,2013-11-04 02:53:00,
2013-11-03 20:59:00,61.5,38.8,29.35,ESE,102,5.4,6.3,43,0.00,,,0.00,LWC V2.10 B1813,2013-11-04 02:59:00,
2013-11-03 21:03:00,61.7,39.6,29.32,SE,134,5.8,7.6,44,0.00,,,0.00,LWC V2.10 B1813,2013-11-04 03:03:00,
2013-11-03 21:08:00,61.7,40.1,29.32,SE,130,3.1,9.2,45,0.00,,,0.00,LWC V2.10 B1813,2013-11-04 03:08:00,
2013-11-03 21:13:00,61.7,40.7,29.32,ESE,123,4.0,8.1,46,0.00,,,0.00,LWC V2.10 B1813,2013-11-04 03:13:00,
2013-11-03 21:18:00,61.5,40.5,29.32,SSE,150,4.0,7.6,46,0.00,,,0.00,LWC V2.10 B1813,2013-11-04 03:18:00,
2013-11-03 21:24:00,61.5,41.1,29.32,NE,54,2.7,6.3,47,0.00,,,0.00,LWC V2.10 B1813,2013-11-04 03:24:00,
2013-11-03 21:29:00,61.3,41.5,29.32,East,85,3.6,6.3,48,0.00,,,0.00,LWC V2.10 B1813,2013-11-04 03:29:00,
2013-11-03 21:34:00,61.3,42.0,29.32,ESE,107,5.8,8.7,49,0.00,,,0.00,LWC V2.10 B1813,2013-11-04 03:34:00,
2013-11-03 21:39:00,61.2,42.4,29.32,East,96,7.6,8.3,50,0.00,,,0.00,LWC V2.10 B1813,2013-11-04 03:39:00,
2013-11-03 21:44:00,61.2,42.9,29.32,SSE,155,5.4,11.4,51,0.00,,,0.00,LWC V2.10 B1813,2013-11-04 03:44:00,
2013-11-03 21:49:00,61.2,43.4,29.32,ESE,115,7.6,11.0,52,0.00,,,0.00,LWC V2.10 B1813,2013-11-04 03:49:00,
2013-11-03 21:54:00,61.2,43.9,29.32,East,88,6.3,11.4,53,0.00,,,0.00,LWC V2.10 B1813,2013-11-04 03:54:00,
2013-11-03 21:59:00,61.2,44.9,29.32,South,185,5.4,11.0,55,0.00,,,0.00,LWC V2.10 B1813,2013-11-04 03:59:00,
2013-11-03 22:04:00,61.3,45.5,29.32,SSE,152,8.1,11.0,56,0.00,,,0.00,LWC V2.10 B1813,2013-11-04 04:04:00,
2013-11-03 22:09:00,61.2,45.8,29.32,SSE,149,10.1,12.3,57,0.00,,,0.00,LWC V2.10 B1813,2013-11-04 04:09:00,
2013-11-03 22:14:00,61.2,46.3,29.32,SE,126,8.1,15.0,58,0.00,,,0.00,LWC V2.10 B1813,2013-11-04 04:14:00,
2013-11-03 22:19:00,61.2,46.3,29.29,South,177,10.1,10.1,58,0.00,,,0.00,LWC V2.10 B1813,2013-11-04 04:19:00,
2013-11-03 22:24:00,61.3,46.9,29.29,ESE,108,6.3,12.3,59,0.00,,,0.00,LWC V2.10 B1813,2013-11-04 04:24:00,
2013-11-03 22:29:00,61.3,47.3,29.29,ESE,117,3.1,10.1,60,0.00,,,0.00,LWC V2.10 B1813,2013-11-04 04:29:00,
2013-11-03 22:34:00,61.3,47.8,29.29,ESE,109,8.1,11.0,61,0.00,,,0.00,LWC V2.10 B1813,2013-11-04 04:34:00,
2013-11-03 22:39:00,61.2,47.6,29.29,East,95,7.2,11.0,61,0.00,,,0.00,LWC V2.10 B1813,2013-11-04 04:39:00,
2013-11-03 22:44:00,61.2,48.0,29.29,SSE,165,6.3,11.0,62,0.00,,,0.00,LWC V2.10 B1813,2013-11-04 04:44:00,
2013-11-03 22:49:00,61.0,47.9,29.32,South,176,6.3,10.5,62,0.00,,,0.00,LWC V2.10 B1813,2013-11-04 04:49:00,
2013-11-03 22:54:00,61.0,48.3,29.32,ESE,123,10.1,12.8,63,0.00,,,0.00,LWC V2.10 B1813,2013-11-04 04:54:00,
2013-11-03 22:59:00,61.0,48.7,29.32,SSE,148,8.7,10.1,64,0.00,,,0.00,LWC V2.10 B1813,2013-11-04 04:59:00,
2013-11-03 23:01:00,61.0,48.7,29.32,South,169,5.4,10.5,64,0.00,,,0.00,LWC V2.10 B1813,2013-11-04 05:01:00,
2013-11-03 23:02:00,60.8,48.5,29.32,ESE,106,4.9,10.5,64,0.00,,,0.00,LWC V2.10 B1813,2013-11-04 05:02:00,
2013-11-03 23:03:00,60.8,48.5,29.32,SE,146,6.3,10.1,64,0.00,,,0.00,LWC V2.10 B1813,2013-11-04 05:03:00,
2013-11-03 23:08:00,60.8,49.0,29.32,SSE,153,3.6,8.7,65,0.00,,,0.00,LWC V2.10 B1813,2013-11-04 05:08:00,
2013-11-03 23:13:00,60.8,49.0,29.32,ESE,102,7.6,8.1,65,0.00,,,0.00,LWC V2.10 B1813,2013-11-04 05:13:00,
2013-11-03 23:18:00,60.8,49.0,29.32,ESE,110,3.6,5.8,65,0.00,,,0.00,LWC V2.10 B1813,2013-11-04 05:18:00,
2013-11-03 23:23:00,60.6,49.2,29.29,South,175,6.7,9.2,66,0.00,,,0.00,LWC V2.10 B1813,2013-11-04 05:23:00,
2013-11-03 23:28:00,60.4,49.0,29.29,SE,144,5.4,9.6,66,0.00,,,0.00,LWC V2.10 B1813,2013-11-04 05:28:00,
2013-11-03 23:33:00,60.4,49.4,29.29,SE,138,10.5,10.5,67,0.00,,,0.00,LWC V2.10 B1813,2013-11-04 05:33:00,
2013-11-03 23:38:00,60.3,49.3,29.29,NE,52,10.5,13.2,67,0.00,,,0.00,LWC V2.10 B1813,2013-11-04 05:38:00,
2013-11-03 23:43:00,60.3,49.7,29.29,South,184,4.0,14.1,68,0.00,,,0.00,LWC V2.10 B1813,2013-11-04 05:43:00,
2013-11-03 23:48:00,60.3,49.7,29.29,South,188,3.1,8.1,68,0.00,,,0.00,LWC V2.10 B1813,2013-11-04 05:48:00,
2013-11-03 23:53:00,60.3,50.0,29.32,South,173,5.8,8.1,69,0.00,,,0.00,LWC V2.10 B1813,2013-11-04 05:53:00,
2013-11-03 23:58:00,60.3,50.4,29.32,SSE,149,5.8,8.7,70,0.00,,,0.00,LWC V2.10 B1813,2013-11-04 05:58:00,